Terminal Aerodrome Forecast
Issued by NWS

Home | Current Version | Previous Version | Text Only | Print | Product List | Glossary On
Versions: 1 2 3 4 5 6 7 8 9 10 11 12 13
000
FTUS43 KMPX 251700
TAFRWF
TAF
KRWF 251720Z 2518/2618 29011KT P6SM SCT250
     FM260100 31005KT P6SM SCT150 BKN250
     FM261600 01005KT P6SM SCT100 SCT250=

USA.gov is the U.S. government's official web portal to all federal, state and local government web resources and services.